Time;durP1;ratioP1;P1;durP2;ratioP2;P2;SDS_P1;SDS_P2;PMS_P1;PMS_P2;Temp;Humidity;BMP_temperature;BMP_pressure;BME280_temperature;BME280_humidity;BME280_pressure;Samples;Min_cycle;Max_cycle;Signal;HPM_P1;HPM_P2
2023/01/28 00:01:11;;;;;;;6.28;3.40;;;;;;;;;;5007421;28;20025;-79
2023/01/28 00:03:38;;;;;;;6.25;3.25;;;;;;;;;;5018731;28;20045;-79
2023/01/28 00:06:10;;;;;;;7.22;3.72;;;;;;;;;;5012488;28;20099;-79
2023/01/28 00:08:36;;;;;;;7.10;4.07;;;;;;;;;;5004004;28;20029;-79
2023/01/28 00:11:03;;;;;;;6.38;3.80;;;;;;;;;;5016834;28;20032;-80
2023/01/28 00:13:29;;;;;;;5.78;3.65;;;;;;;;;;5015038;28;20037;-79
2023/01/28 00:16:00;;;;;;;6.45;3.67;;;;;;;;;;5018781;28;20037;-78
2023/01/28 00:18:27;;;;;;;5.97;3.70;;;;;;;;;;5014859;28;20532;-78
2023/01/28 00:21:06;;;;;;;5.82;3.30;;;;;;;;;;5022302;28;20022;-78
2023/01/28 00:23:34;;;;;;;6.82;3.58;;;;;;;;;;5017996;28;20480;-79
2023/01/28 00:26:02;;;;;;;6.88;3.80;;;;;;;;;;5016863;28;20032;-79
2023/01/28 00:28:28;;;;;;;5.95;3.55;;;;;;;;;;5019350;28;20033;-79
2023/01/28 00:30:53;;;;;;;6.47;3.83;;;;;;;;;;5009823;28;20662;-79
2023/01/28 00:33:19;;;;;;;6.25;3.72;;;;;;;;;;5009442;28;20036;-79
2023/01/28 00:35:44;;;;;;;6.68;3.85;;;;;;;;;;5017941;28;20116;-79
2023/01/28 00:38:10;;;;;;;6.53;3.85;;;;;;;;;;5018305;28;20025;-80
2023/01/28 00:40:35;;;;;;;6.32;3.65;;;;;;;;;;4999791;28;21718;-79
2023/01/28 00:43:01;;;;;;;6.18;3.53;;;;;;;;;;5026103;28;20033;-78
2023/01/28 00:45:27;;;;;;;7.45;3.75;;;;;;;;;;5020417;28;20473;-80
2023/01/28 00:47:52;;;;;;;5.95;3.40;;;;;;;;;;4993006;28;20026;-79
2023/01/28 00:50:20;;;;;;;5.75;3.45;;;;;;;;;;5010655;28;20026;-78
2023/01/28 00:52:46;;;;;;;6.43;3.63;;;;;;;;;;5010100;28;20041;-79
2023/01/28 00:55:12;;;;;;;6.60;3.63;;;;;;;;;;5007702;28;20022;-81
2023/01/28 00:57:37;;;;;;;6.90;3.67;;;;;;;;;;4995890;28;20474;-80
2023/01/28 01:00:04;;;;;;;6.82;3.80;;;;;;;;;;4993451;28;20029;-78
2023/01/28 01:02:30;;;;;;;5.93;3.45;;;;;;;;;;4995890;28;20117;-79
2023/01/28 01:04:59;;;;;;;6.30;3.63;;;;;;;;;;4988794;28;20113;-79
2023/01/28 01:07:33;;;;;;;6.57;3.95;;;;;;;;;;5012394;28;20029;-79
2023/01/28 01:10:01;;;;;;;7.10;4.22;;;;;;;;;;5010536;28;20485;-78
2023/01/28 01:12:27;;;;;;;6.88;3.88;;;;;;;;;;4996051;28;20045;-79
2023/01/28 01:14:53;;;;;;;7.97;4.38;;;;;;;;;;4993403;28;20034;-79
2023/01/28 01:17:20;;;;;;;7.45;4.22;;;;;;;;;;5009358;28;20028;-79
2023/01/28 01:19:45;;;;;;;9.30;4.78;;;;;;;;;;5008314;28;20033;-79
2023/01/28 01:22:10;;;;;;;7.55;4.30;;;;;;;;;;4994113;28;20397;-79
2023/01/28 01:24:36;;;;;;;7.85;4.50;;;;;;;;;;4993185;28;20500;-78
2023/01/28 01:27:01;;;;;;;8.88;5.13;;;;;;;;;;5005682;28;20024;-78
2023/01/28 01:29:27;;;;;;;8.55;4.80;;;;;;;;;;5011340;28;20141;-78
2023/01/28 01:31:54;;;;;;;7.95;4.78;;;;;;;;;;4992470;28;20022;-79
2023/01/28 01:34:22;;;;;;;7.22;4.32;;;;;;;;;;5007079;28;20501;-78
2023/01/28 01:36:48;;;;;;;8.90;5.00;;;;;;;;;;5011024;28;20022;-79
2023/01/28 01:39:13;;;;;;;7.57;4.50;;;;;;;;;;4996147;28;20092;-79
2023/01/28 01:41:38;;;;;;;7.63;4.30;;;;;;;;;;4996365;28;20508;-78
2023/01/28 01:44:05;;;;;;;9.70;4.53;;;;;;;;;;5007698;28;20022;-79
2023/01/28 01:46:42;;;;;;;6.78;4.03;;;;;;;;;;5013556;28;20496;-79
2023/01/28 01:49:23;;;;;;;7.70;4.35;;;;;;;;;;4995192;28;20022;-79
2023/01/28 01:51:57;;;;;;;7.70;4.75;;;;;;;;;;4995805;28;20034;-78
2023/01/28 01:54:25;;;;;;;10.55;5.13;;;;;;;;;;5004330;28;20519;-79
2023/01/28 01:56:51;;;;;;;7.95;4.53;;;;;;;;;;5004049;28;20033;-78
2023/01/28 01:59:22;;;;;;;8.30;4.80;;;;;;;;;;4994175;28;20498;-79
2023/01/28 02:01:47;;;;;;;10.68;5.20;;;;;;;;;;4986947;28;20022;-79
2023/01/28 02:04:26;;;;;;;7.63;4.53;;;;;;;;;;5007962;28;20351;-80
2023/01/28 02:06:52;;;;;;;6.97;3.75;;;;;;;;;;4992508;28;20525;-79
2023/01/28 02:09:37;;;;;;;7.82;4.00;;;;;;;;;;4990403;28;20030;-79
2023/01/28 02:12:07;;;;;;;8.00;4.60;;;;;;;;;;4988347;28;20848;-79
2023/01/28 02:14:36;;;;;;;8.50;4.45;;;;;;;;;;5003945;28;20034;-79
2023/01/28 02:17:02;;;;;;;9.02;5.25;;;;;;;;;;5008014;28;20361;-79
2023/01/28 02:19:39;;;;;;;7.57;4.25;;;;;;;;;;4995829;28;20039;-79
2023/01/28 02:22:14;;;;;;;8.63;5.00;;;;;;;;;;5007072;28;20052;-79
2023/01/28 02:24:51;;;;;;;8.27;4.60;;;;;;;;;;4989273;28;20506;-79
2023/01/28 02:27:34;;;;;;;9.27;5.30;;;;;;;;;;5005333;28;20199;-79
2023/01/28 02:30:15;;;;;;;9.50;5.22;;;;;;;;;;5004638;28;20029;-79
2023/01/28 02:32:54;;;;;;;8.98;4.85;;;;;;;;;;5004906;28;20482;-78
2023/01/28 02:35:40;;;;;;;8.65;4.65;;;;;;;;;;4993250;28;20701;-78
2023/01/28 02:38:20;;;;;;;8.43;4.55;;;;;;;;;;5007773;28;20022;-78
2023/01/28 02:41:02;;;;;;;9.32;5.38;;;;;;;;;;4991250;28;20398;-78
2023/01/28 02:43:32;;;;;;;8.43;4.88;;;;;;;;;;5000387;28;20116;-79
2023/01/28 02:48:43;;;;;;;8.98;4.50;;;;;;;;;;5005959;28;20044;-78
2023/01/28 02:51:25;;;;;;;9.38;5.45;;;;;;;;;;4990536;28;20025;-78
2023/01/28 02:54:02;;;;;;;8.10;4.55;;;;;;;;;;5003706;28;20429;-78
2023/01/28 02:56:41;;;;;;;8.55;4.70;;;;;;;;;;5008609;28;20036;-79
2023/01/28 02:59:30;;;;;;;7.63;4.13;;;;;;;;;;5005306;28;20025;-79
2023/01/28 03:02:19;;;;;;;8.02;4.70;;;;;;;;;;5006247;28;20014;-79
2023/01/28 03:05:04;;;;;;;7.68;4.40;;;;;;;;;;5007019;28;20077;-81
2023/01/28 03:07:34;;;;;;;9.80;4.95;;;;;;;;;;5005367;28;20034;-78
2023/01/28 03:10:04;;;;;;;10.18;5.13;;;;;;;;;;5003367;28;20367;-78
2023/01/28 03:38:19;;;;;;;9.32;4.80;;;;;;;;;;5004363;28;20100;-79
2023/01/28 03:40:54;;;;;;;8.70;4.68;;;;;;;;;;4986828;28;20030;-79
2023/01/28 03:43:19;;;;;;;9.43;5.07;;;;;;;;;;5007195;28;20037;-79
2023/01/28 03:45:45;;;;;;;8.13;4.45;;;;;;;;;;4988066;28;20034;-78
2023/01/28 03:48:14;;;;;;;9.45;4.78;;;;;;;;;;4986721;28;20037;-79
2023/01/28 03:50:39;;;;;;;8.95;5.13;;;;;;;;;;5001620;28;20025;-79
2023/01/28 03:53:11;;;;;;;9.15;4.90;;;;;;;;;;5005244;28;20076;-78
2023/01/28 03:55:36;;;;;;;9.73;4.68;;;;;;;;;;4987573;28;20393;-80
2023/01/28 03:58:04;;;;;;;8.13;4.78;;;;;;;;;;5003278;28;20025;-78
2023/01/28 04:00:31;;;;;;;9.68;5.15;;;;;;;;;;4987455;28;20649;-79
2023/01/28 04:02:57;;;;;;;8.77;4.82;;;;;;;;;;4985505;28;20038;-79
2023/01/28 04:05:24;;;;;;;10.13;4.75;;;;;;;;;;5005040;28;20029;-78
2023/01/28 04:08:23;;;;;;;9.23;4.85;;;;;;;;;;5003022;28;20061;-79
2023/01/28 04:10:49;;;;;;;9.18;4.78;;;;;;;;;;4987968;28;20037;-78
2023/01/28 04:13:14;;;;;;;9.50;5.18;;;;;;;;;;4998300;28;20482;-78
2023/01/28 04:15:42;;;;;;;9.68;5.15;;;;;;;;;;5004563;28;20034;-79
2023/01/28 04:18:07;;;;;;;9.02;4.75;;;;;;;;;;5003884;28;20036;-79
2023/01/28 04:20:33;;;;;;;8.70;4.95;;;;;;;;;;4989872;28;21178;-80
2023/01/28 04:22:59;;;;;;;8.85;4.93;;;;;;;;;;5003030;28;20026;-79
2023/01/28 04:25:24;;;;;;;9.90;5.20;;;;;;;;;;5001766;28;20041;-79
2023/01/28 04:27:50;;;;;;;8.25;4.43;;;;;;;;;;5003024;28;20029;-80
2023/01/28 04:30:16;;;;;;;8.18;4.70;;;;;;;;;;4988427;28;20022;-78
2023/01/28 04:32:41;;;;;;;9.02;4.65;;;;;;;;;;4985400;28;20034;-79
2023/01/28 04:35:07;;;;;;;8.77;4.80;;;;;;;;;;5002708;28;20079;-78
2023/01/28 04:37:32;;;;;;;9.52;4.38;;;;;;;;;;5004643;28;20080;-81
2023/01/28 04:39:57;;;;;;;8.63;4.43;;;;;;;;;;4991209;28;20034;-79
2023/01/28 04:42:23;;;;;;;9.82;5.05;;;;;;;;;;5003596;28;20196;-79
2023/01/28 04:44:48;;;;;;;8.88;5.00;;;;;;;;;;4984967;28;20060;-79
2023/01/28 04:47:14;;;;;;;9.30;5.38;;;;;;;;;;5003080;28;20117;-79
2023/01/28 04:49:39;;;;;;;9.15;5.28;;;;;;;;;;5004571;28;20029;-80
2023/01/28 04:52:04;;;;;;;9.63;4.93;;;;;;;;;;4984172;28;20025;-78
2023/01/28 04:54:30;;;;;;;9.35;4.85;;;;;;;;;;5004589;28;20032;-80
2023/01/28 04:56:55;;;;;;;9.68;4.68;;;;;;;;;;5001462;28;20036;-79
2023/01/28 04:59:22;;;;;;;9.18;5.18;;;;;;;;;;4982642;28;20026;-80
2023/01/28 05:01:48;;;;;;;8.95;5.10;;;;;;;;;;5002366;28;20029;-79
2023/01/28 05:04:16;;;;;;;8.15;4.38;;;;;;;;;;5004668;28;20190;-79
2023/01/28 05:06:41;;;;;;;9.00;4.60;;;;;;;;;;4986127;28;20030;-78
2023/01/28 05:09:07;;;;;;;8.93;4.90;;;;;;;;;;5002917;28;20025;-79
2023/01/28 05:11:33;;;;;;;8.88;5.10;;;;;;;;;;5006262;28;20572;-79
2023/01/28 05:13:59;;;;;;;10.07;5.15;;;;;;;;;;4998425;28;20061;-80
2023/01/28 05:16:24;;;;;;;7.90;4.57;;;;;;;;;;4984574;28;20044;-79
2023/01/28 05:18:50;;;;;;;10.25;5.10;;;;;;;;;;4987757;28;20060;-78
2023/01/28 05:21:16;;;;;;;8.55;4.47;;;;;;;;;;4996090;28;20508;-79
2023/01/28 05:23:42;;;;;;;9.32;5.40;;;;;;;;;;4991709;28;20512;-79
2023/01/28 05:26:07;;;;;;;8.25;4.65;;;;;;;;;;5003254;28;20054;-79
2023/01/28 05:28:33;;;;;;;10.23;5.15;;;;;;;;;;5003179;28;20034;-79
2023/01/28 05:31:03;;;;;;;10.77;5.35;;;;;;;;;;5001250;28;20643;-79
2023/01/28 05:33:29;;;;;;;9.43;4.88;;;;;;;;;;4990687;28;20485;-79
2023/01/28 05:35:54;;;;;;;8.90;4.82;;;;;;;;;;4987228;28;20038;-79
2023/01/28 05:38:19;;;;;;;8.10;4.28;;;;;;;;;;4988831;28;20026;-79
2023/01/28 05:40:46;;;;;;;10.60;5.05;;;;;;;;;;5007251;28;20026;-79
2023/01/28 05:43:11;;;;;;;9.07;4.53;;;;;;;;;;4989423;28;20073;-79
2023/01/28 05:45:37;;;;;;;8.35;4.55;;;;;;;;;;5005296;28;20057;-78
2023/01/28 05:48:02;;;;;;;9.30;4.75;;;;;;;;;;4986392;28;20572;-79
2023/01/28 05:50:28;;;;;;;8.25;4.20;;;;;;;;;;4988871;28;20033;-79
2023/01/28 05:52:53;;;;;;;9.52;5.15;;;;;;;;;;5009290;28;20037;-79
2023/01/28 05:55:18;;;;;;;9.07;4.90;;;;;;;;;;5004137;28;20496;-79
2023/01/28 05:57:44;;;;;;;9.50;5.20;;;;;;;;;;4991036;28;20033;-80
2023/01/28 06:00:10;;;;;;;9.27;4.60;;;;;;;;;;5005325;28;20378;-79
2023/01/28 06:02:36;;;;;;;9.77;5.32;;;;;;;;;;5008113;28;20392;-79
2023/01/28 06:05:01;;;;;;;8.48;4.78;;;;;;;;;;4992468;28;20036;-79
2023/01/28 06:07:26;;;;;;;8.55;4.35;;;;;;;;;;4987903;28;20025;-79
2023/01/28 06:09:52;;;;;;;9.52;5.25;;;;;;;;;;4989961;28;21363;-79
2023/01/28 06:12:17;;;;;;;10.10;4.95;;;;;;;;;;5009565;28;20021;-79
2023/01/28 06:14:43;;;;;;;8.48;4.60;;;;;;;;;;5007765;28;20030;-79
2023/01/28 06:17:08;;;;;;;10.00;5.20;;;;;;;;;;4990788;28;20113;-80
2023/01/28 06:19:34;;;;;;;9.43;5.10;;;;;;;;;;4992799;28;20565;-79
2023/01/28 06:21:59;;;;;;;9.52;4.95;;;;;;;;;;4989866;28;20025;-79
2023/01/28 06:24:24;;;;;;;7.22;4.15;;;;;;;;;;4993904;28;20037;-80
2023/01/28 06:26:50;;;;;;;9.30;4.95;;;;;;;;;;4989633;28;20172;-78
2023/01/28 06:29:15;;;;;;;10.75;4.85;;;;;;;;;;5009169;28;20030;-78
2023/01/28 06:31:41;;;;;;;10.05;4.88;;;;;;;;;;4989847;28;20026;-81
2023/01/28 06:34:08;;;;;;;9.10;4.88;;;;;;;;;;5006289;28;20026;-79
2023/01/28 06:36:34;;;;;;;11.23;5.40;;;;;;;;;;4992178;28;20375;-78
2023/01/28 06:39:00;;;;;;;9.15;4.82;;;;;;;;;;4990135;28;20477;-78
2023/01/28 06:41:25;;;;;;;9.40;5.20;;;;;;;;;;4987786;28;20037;-79
2023/01/28 06:43:51;;;;;;;8.55;4.78;;;;;;;;;;4992262;28;20038;-79
2023/01/28 06:46:16;;;;;;;10.55;5.53;;;;;;;;;;4993103;28;20034;-79
2023/01/28 06:48:41;;;;;;;8.02;4.50;;;;;;;;;;5006670;28;20121;-79
2023/01/28 06:51:07;;;;;;;10.60;5.25;;;;;;;;;;4990409;28;20487;-79
2023/01/28 06:53:32;;;;;;;9.40;5.20;;;;;;;;;;5008553;28;20046;-79
2023/01/28 06:55:58;;;;;;;10.52;5.88;;;;;;;;;;4989846;28;20030;-79
2023/01/28 06:58:23;;;;;;;10.25;5.85;;;;;;;;;;4987946;28;21239;-79
2023/01/28 07:00:48;;;;;;;8.55;4.72;;;;;;;;;;4985290;28;20038;-78
2023/01/28 07:03:14;;;;;;;10.05;5.55;;;;;;;;;;5007863;28;20033;-79
2023/01/28 07:05:40;;;;;;;10.45;5.35;;;;;;;;;;5002268;28;20032;-79
2023/01/28 07:08:05;;;;;;;9.57;4.95;;;;;;;;;;4987843;28;20366;-79
2023/01/28 07:10:31;;;;;;;10.73;5.90;;;;;;;;;;4982150;28;20456;-79
2023/01/28 07:13:02;;;;;;;9.95;5.00;;;;;;;;;;5003327;28;20084;-79
2023/01/28 07:15:28;;;;;;;10.07;5.47;;;;;;;;;;4986551;28;20061;-79
2023/01/28 07:17:53;;;;;;;11.73;5.57;;;;;;;;;;4990747;28;20386;-79
2023/01/28 07:20:19;;;;;;;11.07;5.80;;;;;;;;;;5003173;28;20029;-79
2023/01/28 07:22:45;;;;;;;9.88;5.65;;;;;;;;;;5002015;28;21628;-79
2023/01/28 07:25:12;;;;;;;10.13;5.55;;;;;;;;;;5006673;28;20037;-79
2023/01/28 07:27:37;;;;;;;9.68;5.47;;;;;;;;;;5007416;28;20504;-79
2023/01/28 07:30:03;;;;;;;9.70;5.50;;;;;;;;;;4982931;28;20030;-79
2023/01/28 07:32:29;;;;;;;10.50;6.18;;;;;;;;;;5002283;28;20025;-79
2023/01/28 07:34:54;;;;;;;10.45;5.78;;;;;;;;;;4989687;28;20065;-79
2023/01/28 07:37:20;;;;;;;11.30;6.03;;;;;;;;;;4989322;28;20124;-79
2023/01/28 07:39:45;;;;;;;11.27;5.82;;;;;;;;;;4991760;28;20030;-79
2023/01/28 07:42:11;;;;;;;11.73;6.18;;;;;;;;;;4996415;28;20517;-79
2023/01/28 07:44:37;;;;;;;9.48;5.35;;;;;;;;;;4985742;28;20036;-79
2023/01/28 07:47:03;;;;;;;9.50;5.00;;;;;;;;;;5004576;28;20528;-79
2023/01/28 07:49:29;;;;;;;9.93;5.25;;;;;;;;;;4981366;28;20445;-79
2023/01/28 07:51:55;;;;;;;11.23;5.57;;;;;;;;;;5005931;28;20031;-80
2023/01/28 07:54:20;;;;;;;10.63;5.35;;;;;;;;;;4985380;28;20572;-78
2023/01/28 07:56:48;;;;;;;9.48;5.18;;;;;;;;;;4984148;28;20390;-79
2023/01/28 07:59:30;;;;;;;9.77;6.00;;;;;;;;;;4989357;28;20025;-80
2023/01/28 08:01:55;;;;;;;9.88;5.88;;;;;;;;;;5001204;28;20544;-79
2023/01/28 08:04:21;;;;;;;10.15;5.47;;;;;;;;;;4986973;28;20029;-78
2023/01/28 08:06:46;;;;;;;9.10;5.35;;;;;;;;;;4986787;28;20061;-78
2023/01/28 08:09:11;;;;;;;8.93;5.22;;;;;;;;;;5003084;28;20026;-79
2023/01/28 08:11:38;;;;;;;9.02;5.28;;;;;;;;;;5004716;28;20025;-80
2023/01/28 08:14:04;;;;;;;9.07;5.20;;;;;;;;;;4988906;28;20064;-79
2023/01/28 08:16:30;;;;;;;10.15;5.32;;;;;;;;;;5005877;28;20065;-79
2023/01/28 08:18:55;;;;;;;9.48;5.45;;;;;;;;;;4986650;28;20026;-79
2023/01/28 08:21:21;;;;;;;10.20;6.00;;;;;;;;;;4988310;28;20479;-80
2023/01/28 08:23:46;;;;;;;10.20;5.80;;;;;;;;;;4986413;28;20045;-80
2023/01/28 08:26:12;;;;;;;8.82;5.30;;;;;;;;;;4985459;28;20021;-79
2023/01/28 08:28:37;;;;;;;8.85;5.22;;;;;;;;;;4986800;28;20034;-79
2023/01/28 08:31:03;;;;;;;10.68;6.20;;;;;;;;;;5002461;28;20049;-79
2023/01/28 08:33:28;;;;;;;9.85;5.78;;;;;;;;;;5002109;28;21780;-79
2023/01/28 08:35:54;;;;;;;10.02;5.53;;;;;;;;;;5004981;28;20029;-78
2023/01/28 08:38:19;;;;;;;10.55;5.95;;;;;;;;;;4986415;28;20478;-78
2023/01/28 08:40:54;;;;;;;9.57;5.25;;;;;;;;;;5002561;28;20029;-79
2023/01/28 08:43:20;;;;;;;9.02;5.05;;;;;;;;;;5003489;28;20379;-79
2023/01/28 08:45:45;;;;;;;7.50;4.47;;;;;;;;;;4986925;28;20030;-78
2023/01/28 08:48:17;;;;;;;9.23;5.18;;;;;;;;;;4990271;28;20025;-79
2023/01/28 08:50:43;;;;;;;9.10;5.30;;;;;;;;;;4990167;28;20051;-79
2023/01/28 08:53:14;;;;;;;10.10;5.47;;;;;;;;;;4997375;28;20504;-79
2023/01/28 08:55:40;;;;;;;9.13;5.28;;;;;;;;;;5005913;28;20037;-79
2023/01/28 08:58:09;;;;;;;8.95;4.63;;;;;;;;;;5001207;28;20029;-79
2023/01/28 09:00:35;;;;;;;8.10;4.95;;;;;;;;;;5003635;28;20383;-79
2023/01/28 09:03:00;;;;;;;10.48;5.40;;;;;;;;;;5002738;28;20092;-79
2023/01/28 09:05:26;;;;;;;8.73;4.95;;;;;;;;;;5008332;28;20096;-78
2023/01/28 09:07:52;;;;;;;10.00;5.40;;;;;;;;;;5008246;28;20026;-79
2023/01/28 09:10:19;;;;;;;9.90;5.30;;;;;;;;;;4992302;28;20045;-79
2023/01/28 09:12:44;;;;;;;8.32;4.82;;;;;;;;;;4999138;28;20121;-79
2023/01/28 09:15:11;;;;;;;8.23;4.05;;;;;;;;;;4997533;28;20471;-79
2023/01/28 09:17:36;;;;;;;9.50;4.60;;;;;;;;;;4987852;28;20485;-79
2023/01/28 09:20:02;;;;;;;9.95;5.32;;;;;;;;;;4990025;28;20061;-79
2023/01/28 09:22:29;;;;;;;9.23;4.93;;;;;;;;;;4992968;28;20379;-79
2023/01/28 09:24:54;;;;;;;9.05;4.95;;;;;;;;;;5007645;28;20044;-79
2023/01/28 09:27:19;;;;;;;9.82;4.72;;;;;;;;;;4991750;28;20026;-79
2023/01/28 09:29:45;;;;;;;8.80;4.90;;;;;;;;;;4992439;28;20424;-80
2023/01/28 09:32:10;;;;;;;7.82;4.60;;;;;;;;;;5012006;28;20053;-79
2023/01/28 09:34:36;;;;;;;9.38;4.97;;;;;;;;;;4996745;28;20120;-79
2023/01/28 09:37:02;;;;;;;8.50;4.45;;;;;;;;;;4992532;28;20033;-78
2023/01/28 09:39:27;;;;;;;8.90;4.95;;;;;;;;;;4992386;28;20053;-78
2023/01/28 09:42:28;;;;;;;9.07;4.60;;;;;;;;;;5007053;28;20057;-79
2023/01/28 09:45:00;;;;;;;8.80;4.60;;;;;;;;;;5006428;28;20053;-79
2023/01/28 09:47:34;;;;;;;9.27;4.60;;;;;;;;;;5012245;28;20044;-79
2023/01/28 09:50:04;;;;;;;9.02;4.75;;;;;;;;;;4987179;28;20068;-79
2023/01/28 09:52:33;;;;;;;8.93;4.72;;;;;;;;;;4996633;28;20120;-79
2023/01/28 09:55:03;;;;;;;8.98;4.70;;;;;;;;;;5005775;28;20489;-79
2023/01/28 09:57:33;;;;;;;10.38;5.20;;;;;;;;;;4996269;28;20040;-79
2023/01/28 10:00:00;;;;;;;8.80;4.80;;;;;;;;;;5009426;28;20030;-79
2023/01/28 10:02:38;;;;;;;9.82;5.13;;;;;;;;;;4989364;28;20425;-79
2023/01/28 10:05:21;;;;;;;8.93;4.60;;;;;;;;;;4987123;28;20525;-79
2023/01/28 10:08:06;;;;;;;9.60;4.97;;;;;;;;;;4986563;28;20065;-79
2023/01/28 10:10:41;;;;;;;9.27;4.75;;;;;;;;;;4990329;28;20034;-78
2023/01/28 10:13:14;;;;;;;8.60;4.68;;;;;;;;;;4984539;28;20030;-79
2023/01/28 10:15:48;;;;;;;9.15;4.70;;;;;;;;;;5008630;28;20064;-79
2023/01/28 10:18:13;;;;;;;10.02;4.88;;;;;;;;;;5006938;28;20030;-79
2023/01/28 10:20:53;;;;;;;9.35;4.78;;;;;;;;;;5006168;28;20084;-79
2023/01/28 10:23:25;;;;;;;8.80;4.47;;;;;;;;;;4999198;28;20025;-80
2023/01/28 10:25:56;;;;;;;7.68;3.97;;;;;;;;;;5006970;28;20482;-80
2023/01/28 10:28:33;;;;;;;9.02;4.30;;;;;;;;;;4990333;28;20033;-79
2023/01/28 10:31:02;;;;;;;9.00;3.90;;;;;;;;;;5003711;28;20022;-79
2023/01/28 10:33:27;;;;;;;8.88;4.07;;;;;;;;;;5003316;28;20093;-79
2023/01/28 10:35:54;;;;;;;7.88;4.28;;;;;;;;;;4990408;28;20111;-80
2023/01/28 10:38:27;;;;;;;7.97;3.63;;;;;;;;;;4984678;28;20785;-80
2023/01/28 10:40:59;;;;;;;8.20;4.13;;;;;;;;;;4991583;28;20044;-80
2023/01/28 10:43:28;;;;;;;7.28;3.70;;;;;;;;;;4988497;28;20080;-79
2023/01/28 10:46:12;;;;;;;7.53;4.03;;;;;;;;;;5001417;28;20026;-79
2023/01/28 10:48:44;;;;;;;8.27;4.07;;;;;;;;;;4983150;28;20065;-79
2023/01/28 10:51:10;;;;;;;8.20;4.35;;;;;;;;;;4987612;28;20476;-80
2023/01/28 10:53:44;;;;;;;7.40;3.75;;;;;;;;;;5003179;28;20034;-79
2023/01/28 10:56:23;;;;;;;8.50;4.50;;;;;;;;;;4974030;28;20088;-79
2023/01/28 10:58:58;;;;;;;8.07;4.10;;;;;;;;;;4991172;28;20025;-80
2023/01/28 11:01:24;;;;;;;7.70;4.50;;;;;;;;;;5007427;28;20125;-79
2023/01/28 11:04:02;;;;;;;8.20;4.00;;;;;;;;;;5005124;28;20612;-80
2023/01/28 11:06:35;;;;;;;8.93;4.28;;;;;;;;;;4989218;28;20034;-81
2023/01/28 11:09:37;;;;;;;8.68;4.57;;;;;;;;;;5001520;28;20038;-82
2023/01/28 11:12:22;;;;;;;9.90;4.38;;;;;;;;;;4985905;28;20030;-79
2023/01/28 11:14:59;;;;;;;6.93;3.63;;;;;;;;;;5004867;28;20037;-80
2023/01/28 11:17:28;;;;;;;6.90;3.50;;;;;;;;;;5002611;28;20456;-80
2023/01/28 11:19:57;;;;;;;8.13;3.90;;;;;;;;;;4984066;28;20045;-81
2023/01/28 11:22:43;;;;;;;7.07;3.88;;;;;;;;;;5003497;28;20033;-80
2023/01/28 11:25:17;;;;;;;6.80;3.70;;;;;;;;;;5001749;28;20033;-78
2023/01/28 11:27:47;;;;;;;7.20;3.95;;;;;;;;;;4992838;28;20034;-80
2023/01/28 11:30:25;;;;;;;6.15;3.60;;;;;;;;;;4988646;28;20359;-81
2023/01/28 11:32:56;;;;;;;6.35;3.50;;;;;;;;;;5005841;28;20026;-80
2023/01/28 11:35:29;;;;;;;6.90;3.72;;;;;;;;;;4991034;28;20038;-79
2023/01/28 11:37:58;;;;;;;7.45;4.38;;;;;;;;;;4988067;28;20504;-80
2023/01/28 11:40:24;;;;;;;6.28;3.20;;;;;;;;;;5002433;28;20026;-79
2023/01/28 11:42:51;;;;;;;9.32;3.28;;;;;;;;;;5002622;28;20034;-79
2023/01/28 11:45:21;;;;;;;9.73;4.95;;;;;;;;;;4981528;28;20030;-80
2023/01/28 11:48:01;;;;;;;6.55;3.33;;;;;;;;;;4986219;28;20193;-79
2023/01/28 11:50:43;;;;;;;7.95;4.18;;;;;;;;;;5005534;28;20038;-79
2023/01/28 11:53:46;;;;;;;7.10;3.67;;;;;;;;;;4987479;28;20030;-79
2023/01/28 11:56:54;;;;;;;7.93;3.90;;;;;;;;;;5002882;28;20046;-79
2023/01/28 11:59:41;;;;;;;7.10;3.55;;;;;;;;;;5004893;28;20030;-79
2023/01/28 12:02:16;;;;;;;7.90;4.15;;;;;;;;;;5003755;28;20057;-79
2023/01/28 12:04:53;;;;;;;6.22;3.25;;;;;;;;;;4990018;28;20478;-79
2023/01/28 12:07:26;;;;;;;7.07;3.45;;;;;;;;;;5006812;28;20060;-79
2023/01/28 12:10:29;;;;;;;6.25;3.40;;;;;;;;;;4998917;28;20038;-81
2023/01/28 12:13:12;;;;;;;6.10;3.05;;;;;;;;;;5001502;28;20061;-79
2023/01/28 12:15:50;;;;;;;7.28;3.97;;;;;;;;;;5004008;28;20048;-79
2023/01/28 12:18:40;;;;;;;7.22;3.88;;;;;;;;;;5005969;28;20057;-81
2023/01/28 12:21:11;;;;;;;6.95;3.45;;;;;;;;;;4995155;28;20091;-80
2023/01/28 12:24:06;;;;;;;7.15;3.70;;;;;;;;;;4998569;28;20038;-79
2023/01/28 12:27:02;;;;;;;5.93;3.30;;;;;;;;;;4987896;28;20018;-79
2023/01/28 12:29:48;;;;;;;6.07;3.47;;;;;;;;;;4979249;28;20033;-80
2023/01/28 12:32:38;;;;;;;6.40;3.45;;;;;;;;;;4974142;28;20045;-80
2023/01/28 12:35:09;;;;;;;6.03;3.50;;;;;;;;;;4980013;28;20087;-79
2023/01/28 12:37:51;;;;;;;8.68;3.63;;;;;;;;;;4997441;28;20022;-80
2023/01/28 12:40:32;;;;;;;6.80;3.83;;;;;;;;;;5001977;28;20026;-79
2023/01/28 12:43:07;;;;;;;6.43;3.33;;;;;;;;;;4999299;28;20385;-79
2023/01/28 12:45:39;;;;;;;6.10;3.67;;;;;;;;;;5000497;28;20025;-79
2023/01/28 12:48:11;;;;;;;7.07;3.70;;;;;;;;;;4984772;28;20065;-79
2023/01/28 12:51:02;;;;;;;5.95;3.25;;;;;;;;;;5005154;28;20059;-79
2023/01/28 12:53:39;;;;;;;6.47;3.60;;;;;;;;;;4999510;28;20054;-79
2023/01/28 12:56:17;;;;;;;7.10;3.78;;;;;;;;;;5004104;28;20123;-79
2023/01/28 12:58:50;;;;;;;6.53;3.58;;;;;;;;;;4989079;28;20489;-79
2023/01/28 13:01:22;;;;;;;7.00;3.90;;;;;;;;;;4987440;28;20097;-80
2023/01/28 13:03:58;;;;;;;6.30;3.35;;;;;;;;;;5005610;28;20506;-79
2023/01/28 13:06:40;;;;;;;6.88;3.53;;;;;;;;;;4978847;28;20041;-79
2023/01/28 13:09:24;;;;;;;6.68;3.53;;;;;;;;;;4987777;28;20038;-79
2023/01/28 13:11:53;;;;;;;6.05;3.30;;;;;;;;;;4999068;28;20539;-80
2023/01/28 13:14:25;;;;;;;6.30;3.25;;;;;;;;;;5007812;28;20065;-79
2023/01/28 13:16:51;;;;;;;8.13;3.60;;;;;;;;;;4984441;28;20087;-79
2023/01/28 13:19:16;;;;;;;6.97;3.35;;;;;;;;;;4986188;28;20523;-79
2023/01/28 13:21:42;;;;;;;6.13;3.45;;;;;;;;;;5004641;28;20030;-79
2023/01/28 13:24:11;;;;;;;6.32;3.50;;;;;;;;;;5004505;28;20109;-79
2023/01/28 13:26:39;;;;;;;6.20;2.88;;;;;;;;;;4988173;28;20038;-79
2023/01/28 13:29:14;;;;;;;6.63;3.40;;;;;;;;;;4988790;28;20069;-80
2023/01/28 13:31:46;;;;;;;6.45;3.58;;;;;;;;;;4996610;28;20022;-80
2023/01/28 13:34:56;;;;;;;6.65;3.35;;;;;;;;;;4991485;28;20053;-79
2023/01/28 13:37:53;;;;;;;5.35;3.25;;;;;;;;;;4991074;28;20047;-80
2023/01/28 13:40:26;;;;;;;6.75;3.25;;;;;;;;;;4972777;28;20596;-79
2023/01/28 13:43:04;;;;;;;7.47;3.85;;;;;;;;;;4996350;28;20049;-80
2023/01/28 13:45:30;;;;;;;6.35;3.08;;;;;;;;;;4969322;28;20592;-80
2023/01/28 13:48:12;;;;;;;8.15;3.75;;;;;;;;;;4984229;28;20029;-80
2023/01/28 13:50:42;;;;;;;5.90;2.88;;;;;;;;;;4973653;28;20489;-81
2023/01/28 13:53:20;;;;;;;7.18;3.35;;;;;;;;;;4996774;28;22169;-80
2023/01/28 13:55:47;;;;;;;5.80;3.22;;;;;;;;;;4973299;28;20339;-80
2023/01/28 13:58:38;;;;;;;6.03;3.20;;;;;;;;;;4998294;28;20032;-80
2023/01/28 14:01:25;;;;;;;6.35;3.55;;;;;;;;;;4999349;28;20615;-79
2023/01/28 14:03:50;;;;;;;6.72;3.28;;;;;;;;;;4981828;28;20754;-79
2023/01/28 14:06:40;;;;;;;5.55;3.10;;;;;;;;;;5003414;28;20079;-80
2023/01/28 14:09:59;;;;;;;6.63;3.70;;;;;;;;;;5006200;28;20040;-80
2023/01/28 14:12:50;;;;;;;6.22;2.80;;;;;;;;;;4943177;28;20425;-80
2023/01/28 14:15:34;;;;;;;5.05;2.92;;;;;;;;;;4966573;28;20050;-79
2023/01/28 14:18:00;;;;;;;6.13;3.45;;;;;;;;;;5000922;28;20038;-79
2023/01/28 14:20:32;;;;;;;7.45;3.35;;;;;;;;;;4993054;28;20375;-79
2023/01/28 14:23:01;;;;;;;5.70;2.90;;;;;;;;;;5010033;28;20485;-80
2023/01/28 14:25:46;;;;;;;6.88;3.42;;;;;;;;;;5008506;28;20371;-79
2023/01/28 14:28:19;;;;;;;6.22;3.53;;;;;;;;;;4987390;28;20425;-78
2023/01/28 14:30:59;;;;;;;;;;;;;;;;;;4995400;28;20069;-78
2023/01/28 14:33:24;;;;;;;5.97;3.08;;;;;;;;;;4997368;28;20285;-79
2023/01/28 14:35:50;;;;;;;5.35;2.83;;;;;;;;;;5009272;28;20034;-79
2023/01/28 14:38:20;;;;;;;6.10;2.88;;;;;;;;;;5002138;28;20025;-81
2023/01/28 14:40:50;;;;;;;7.80;3.40;;;;;;;;;;5003434;28;20038;-80
2023/01/28 14:43:21;;;;;;;6.05;3.25;;;;;;;;;;5006805;28;20029;-79
2023/01/28 14:46:01;;;;;;;7.75;3.35;;;;;;;;;;4996066;28;20022;-79
2023/01/28 14:48:38;;;;;;;6.38;3.35;;;;;;;;;;5008068;28;20033;-79
2023/01/28 14:51:04;;;;;;;5.45;3.15;;;;;;;;;;5007774;28;20373;-79
2023/01/28 14:53:47;;;;;;;6.82;3.50;;;;;;;;;;4992842;28;20028;-79
2023/01/28 14:56:37;;;;;;;8.25;3.58;;;;;;;;;;5004710;28;20026;-79
2023/01/28 14:59:18;;;;;;;6.50;3.38;;;;;;;;;;5006648;28;20029;-79
2023/01/28 15:01:46;;;;;;;6.28;3.25;;;;;;;;;;4994050;28;20026;-79
2023/01/28 15:04:34;;;;;;;6.00;3.42;;;;;;;;;;4988299;28;20116;-81
2023/01/28 15:07:21;;;;;;;6.43;3.10;;;;;;;;;;5007554;28;20402;-79
2023/01/28 15:09:58;;;;;;;6.47;3.45;;;;;;;;;;4983475;28;20038;-79
2023/01/28 15:12:24;;;;;;;6.07;3.35;;;;;;;;;;4994368;28;20913;-80
2023/01/28 15:14:49;;;;;;;7.05;3.60;;;;;;;;;;5005210;28;20026;-79
2023/01/28 15:17:25;;;;;;;6.68;3.50;;;;;;;;;;5012909;28;20042;-79
2023/01/28 15:19:53;;;;;;;7.10;3.38;;;;;;;;;;5011801;28;20044;-79
2023/01/28 15:22:24;;;;;;;6.72;3.40;;;;;;;;;;5006633;28;20030;-79
2023/01/28 15:24:50;;;;;;;6.13;3.20;;;;;;;;;;4991404;28;20125;-79
2023/01/28 15:27:28;;;;;;;6.55;3.38;;;;;;;;;;5001304;28;20129;-79
2023/01/28 15:29:56;;;;;;;6.85;3.63;;;;;;;;;;5002113;28;20072;-79
2023/01/28 15:32:28;;;;;;;6.68;3.67;;;;;;;;;;4987542;28;20022;-79